Time;durP1;ratioP1;P1;durP2;ratioP2;P2;SDS_P1;SDS_P2;PMS_P1;PMS_P2;Temp;Humidity;BMP_temperature;BMP_pressure;BME280_temperature;BME280_humidity;BME280_pressure;Samples;Min_cycle;Max_cycle;Signal;HPM_P1;HPM_P2
2022/11/06 00:04:29;;;;;;;7.10;3.40;;;12.00;99.00;;;;;;10458566;28;20017;-61
2022/11/06 00:09:30;;;;;;;6.10;3.33;;;12.10;99.00;;;;;;10454302;28;20032;-61
2022/11/06 00:14:30;;;;;;;4.28;3.00;;;12.10;99.00;;;;;;10452707;28;20021;-61
2022/11/06 00:19:31;;;;;;;4.32;3.08;;;12.10;99.00;;;;;;10450289;28;20864;-62
2022/11/06 00:24:32;;;;;;;5.18;3.47;;;12.10;99.00;;;;;;10450626;28;20028;-62
2022/11/06 00:29:32;;;;;;;5.53;2.95;;;12.00;99.00;;;;;;10456403;28;20045;-62
2022/11/06 00:34:33;;;;;;;5.47;3.10;;;12.10;99.00;;;;;;10459616;28;20017;-62
2022/11/06 00:39:34;;;;;;;5.70;3.55;;;12.10;99.00;;;;;;10455923;28;20711;-61
2022/11/06 00:44:34;;;;;;;7.82;3.10;;;12.00;99.00;;;;;;10457362;28;20078;-62
2022/11/06 00:49:35;;;;;;;7.43;3.33;;;12.10;99.10;;;;;;10457149;28;20664;-62
2022/11/06 00:54:36;;;;;;;4.63;2.83;;;12.10;99.10;;;;;;10458691;28;20128;-62
2022/11/06 00:59:36;;;;;;;5.47;2.67;;;12.10;99.30;;;;;;10459750;28;20036;-62
2022/11/06 01:04:37;;;;;;;6.22;3.20;;;12.00;99.00;;;;;;10458275;28;20405;-62
2022/11/06 01:09:38;;;;;;;7.57;3.10;;;12.00;99.10;;;;;;10452508;28;20068;-62
2022/11/06 01:14:39;;;;;;;4.97;3.35;;;12.00;99.10;;;;;;10449773;28;20829;-61
2022/11/06 01:19:40;;;;;;;4.25;3.10;;;11.70;99.00;;;;;;10450828;28;20031;-61
2022/11/06 01:24:41;;;;;;;6.55;3.35;;;12.00;99.10;;;;;;10451567;28;20190;-62
2022/11/06 01:29:42;;;;;;;6.18;3.47;;;12.00;99.10;;;;;;10455752;28;20543;-61
2022/11/06 01:34:43;;;;;;;4.53;3.47;;;12.00;99.10;;;;;;10453660;28;20121;-62
2022/11/06 01:39:44;;;;;;;6.18;3.10;;;12.00;99.20;;;;;;10450967;28;20071;-62
2022/11/06 01:45:00;;;;;;;7.28;3.40;;;12.00;99.20;;;;;;10456762;28;20033;-62
2022/11/06 01:50:05;;;;;;;6.00;3.15;;;12.00;99.20;;;;;;10456200;28;20833;-63
2022/11/06 01:55:12;;;;;;;3.97;2.88;;;12.10;99.20;;;;;;10453284;28;20045;-63
2022/11/06 02:00:13;;;;;;;4.93;2.95;;;12.00;99.20;;;;;;10449161;28;20481;-62
2022/11/06 02:05:15;;;;;;;6.80;2.80;;;12.00;99.20;;;;;;10454085;28;20028;-62
2022/11/06 02:10:16;;;;;;;4.82;3.10;;;12.00;99.20;;;;;;10454224;28;20112;-64
2022/11/06 02:15:28;;;;;;;5.80;3.22;;;12.00;99.30;;;;;;10453159;28;20332;-62
2022/11/06 02:20:36;;;;;;;6.35;3.47;;;12.00;99.30;;;;;;10455539;28;20036;-62
2022/11/06 02:25:47;;;;;;;5.13;3.10;;;12.00;99.30;;;;;;10447941;28;20036;-62
2022/11/06 02:30:50;;;;;;;4.40;2.75;;;12.00;99.30;;;;;;10454100;28;20111;-62
2022/11/06 02:36:05;;;;;;;4.93;3.08;;;12.00;99.30;;;;;;10455146;28;20095;-62
2022/11/06 02:41:18;;;;;;;3.35;2.60;;;12.00;99.40;;;;;;10446519;28;20036;-62
2022/11/06 02:46:31;;;;;;;8.20;3.03;;;12.00;99.40;;;;;;10450539;28;20158;-61
2022/11/06 02:51:37;;;;;;;6.13;2.90;;;12.00;99.40;;;;;;10459137;28;20029;-62
2022/11/06 02:56:42;;;;;;;4.40;2.78;;;12.00;99.40;;;;;;10466345;28;20513;-61
2022/11/06 03:01:52;;;;;;;3.70;2.65;;;12.00;99.40;;;;;;10467604;28;20025;-61
2022/11/06 03:07:14;;;;;;;5.10;2.55;;;11.90;99.40;;;;;;10467603;28;20040;-62
2022/11/06 03:12:53;;;;;;;7.15;3.13;;;12.00;99.40;;;;;;10460707;28;20040;-62
2022/11/06 03:18:26;;;;;;;6.85;2.85;;;11.90;99.40;;;;;;10447628;28;20092;-62
2022/11/06 03:23:40;;;;;;;7.10;3.20;;;12.00;99.50;;;;;;10450925;28;20504;-64
2022/11/06 03:28:51;;;;;;;5.22;2.92;;;11.90;99.40;;;;;;10461605;28;20040;-62
2022/11/06 03:33:57;;;;;;;4.00;2.28;;;11.90;99.50;;;;;;10467450;28;20028;-62
2022/11/06 03:39:04;;;;;;;3.78;2.30;;;11.90;99.50;;;;;;10466706;28;20048;-61
2022/11/06 03:44:07;;;;;;;5.43;2.75;;;11.90;99.50;;;;;;10467614;28;20290;-62
2022/11/06 03:49:15;;;;;;;6.47;2.40;;;11.90;99.80;;;;;;10463753;28;20128;-62
2022/11/06 03:54:22;;;;;;;4.10;2.50;;;11.90;99.50;;;;;;10463190;28;20481;-62
2022/11/06 03:59:31;;;;;;;6.97;2.90;;;11.90;99.50;;;;;;10466653;28;20033;-62
2022/11/06 04:04:40;;;;;;;6.05;2.70;;;11.90;99.60;;;;;;10460613;28;20493;-62
2022/11/06 04:15:07;;;;;;;4.35;3.20;;;11.90;99.60;;;;;;10458784;28;20437;-62
2022/11/06 04:21:20;;;;;;;5.38;2.28;;;11.90;99.60;;;;;;10457491;28;20263;-63
2022/11/06 04:31:24;;;;;;;7.25;2.38;;;11.90;99.60;;;;;;10451167;28;20029;-62
2022/11/06 04:36:52;;;;;;;3.38;2.40;;;11.90;99.60;;;;;;10451252;28;20078;-61
2022/11/06 04:42:00;;;;;;;3.53;2.45;;;11.90;99.70;;;;;;10455866;28;20052;-62
2022/11/06 04:47:12;;;;;;;4.20;2.45;;;11.90;99.60;;;;;;10455638;28;20037;-62
2022/11/06 04:52:17;;;;;;;4.90;2.38;;;11.90;99.70;;;;;;10455966;28;20151;-63
2022/11/06 04:57:18;;;;;;;4.15;2.30;;;11.90;99.70;;;;;;10450993;28;20572;-62
2022/11/06 05:02:19;;;;;;;4.90;2.15;;;11.90;99.70;;;;;;10453720;28;20102;-63
2022/11/06 05:07:19;;;;;;;6.45;2.55;;;11.90;99.70;;;;;;10452799;28;20486;-62
2022/11/06 05:12:20;;;;;;;3.80;2.17;;;11.90;99.70;;;;;;10455197;28;20071;-62
2022/11/06 05:17:21;;;;;;;3.47;1.80;;;11.80;99.70;;;;;;10450903;28;20029;-62
2022/11/06 05:27:40;;;;;;;3.70;1.90;;;11.90;99.80;;;;;;10450058;28;20047;-62
2022/11/06 05:32:41;;;;;;;5.25;2.50;;;11.90;99.70;;;;;;10453675;28;20287;-62
2022/11/06 05:37:42;;;;;;;5.63;2.33;;;11.80;99.70;;;;;;10455491;28;20101;-62
2022/11/06 05:42:43;;;;;;;4.22;2.17;;;11.90;99.70;;;;;;10459248;28;20023;-63
2022/11/06 05:47:44;;;;;;;5.68;1.90;;;11.90;99.70;;;;;;10458284;28;20036;-64
2022/11/06 05:52:44;;;;;;;2.97;1.83;;;11.90;99.70;;;;;;10457367;28;20029;-62
2022/11/06 05:57:45;;;;;;;6.32;1.92;;;11.90;99.70;;;;;;10455235;28;20552;-63
2022/11/06 06:02:46;;;;;;;4.28;1.70;;;11.90;99.70;;;;;;10453552;28;20017;-62
2022/11/06 06:07:47;;;;;;;3.90;1.88;;;11.80;99.70;;;;;;10468825;28;20111;-63
2022/11/06 06:12:50;;;;;;;2.78;1.70;;;11.90;99.70;;;;;;10456396;28;20033;-63
2022/11/06 06:17:51;;;;;;;6.18;2.00;;;11.90;99.70;;;;;;10465429;28;20059;-64
2022/11/06 06:22:55;;;;;;;4.40;1.75;;;11.80;99.70;;;;;;10453351;28;20124;-63
2022/11/06 06:27:57;;;;;;;2.63;1.67;;;11.80;99.70;;;;;;10448416;28;20032;-63
2022/11/06 06:33:04;;;;;;;4.35;1.80;;;11.90;99.70;;;;;;10452924;28;20033;-62
2022/11/06 06:38:05;;;;;;;5.25;1.70;;;11.80;99.70;;;;;;10450932;28;20135;-62
2022/11/06 06:43:05;;;;;;;3.50;1.52;;;11.80;99.70;;;;;;10454501;28;20027;-62
2022/11/06 06:48:06;;;;;;;4.03;1.90;;;11.90;99.70;;;;;;10450507;28;20467;-63
2022/11/06 06:53:07;;;;;;;3.22;1.65;;;11.80;99.70;;;;;;10450953;28;20040;-63
2022/11/06 06:58:09;;;;;;;6.30;1.65;;;11.90;99.70;;;;;;10451518;28;20032;-62
2022/11/06 07:03:10;;;;;;;3.72;1.77;;;11.80;99.70;;;;;;10441040;28;20366;-63
2022/11/06 07:08:11;;;;;;;5.80;1.90;;;11.80;99.70;;;;;;10445759;28;20045;-63
2022/11/06 07:13:11;;;;;;;2.78;1.55;;;11.80;99.70;;;;;;10375643;28;20114;-63
2022/11/06 07:18:12;;;;;;;4.00;1.52;;;12.00;99.70;;;;;;10368717;28;20036;-63
2022/11/06 07:23:13;;;;;;;3.60;2.15;;;11.90;99.70;;;;;;10371067;28;20456;-62
2022/11/06 07:28:14;;;;;;;2.05;1.27;;;11.90;99.70;;;;;;10394807;28;20098;-62
2022/11/06 07:33:15;;;;;;;4.03;1.38;;;11.90;99.70;;;;;;10382217;28;20080;-62
2022/11/06 07:38:17;;;;;;;3.10;1.60;;;11.90;99.70;;;;;;10376868;28;20056;-62
2022/11/06 07:43:18;;;;;;;6.28;1.83;;;11.90;99.70;;;;;;10375549;28;20503;-63
2022/11/06 07:48:19;;;;;;;2.97;1.50;;;11.90;99.70;;;;;;10368803;28;20052;-63
2022/11/06 07:53:20;;;;;;;2.92;1.45;;;11.90;99.70;;;;;;10372426;28;20283;-63
2022/11/06 07:58:22;;;;;;;4.70;1.60;;;11.90;99.70;;;;;;10374778;28;20041;-62
2022/11/06 08:03:23;;;;;;;4.63;1.60;;;11.90;99.70;;;;;;10371400;28;20136;-62
2022/11/06 08:08:24;;;;;;;4.78;1.35;;;11.90;99.70;;;;;;10384216;28;20080;-63
2022/11/06 08:13:25;;;;;;;5.60;2.15;;;11.90;99.70;;;;;;10374904;28;20029;-63
2022/11/06 08:18:26;;;;;;;3.55;1.40;;;12.00;99.70;;;;;;10369286;28;20156;-63
2022/11/06 08:23:27;;;;;;;7.75;1.63;;;11.90;99.70;;;;;;10375712;28;20021;-62
2022/11/06 08:28:28;;;;;;;11.13;1.95;;;11.90;99.60;;;;;;10369763;28;20045;-64
2022/11/06 08:33:29;;;;;;;4.55;1.50;;;12.00;99.70;;;;;;10373565;28;20021;-62
2022/11/06 08:38:30;;;;;;;4.72;1.90;;;11.90;99.60;;;;;;10372458;28;20493;-63
2022/11/06 08:43:31;;;;;;;2.67;1.35;;;11.90;99.60;;;;;;10373854;28;20382;-62
2022/11/06 08:48:32;;;;;;;4.47;1.48;;;12.00;99.70;;;;;;10374034;28;20480;-63
2022/11/06 08:53:33;;;;;;;3.97;1.55;;;12.00;99.70;;;;;;10377738;28;20572;-63
2022/11/06 08:58:34;;;;;;;3.88;1.33;;;12.00;99.70;;;;;;10373369;28;20032;-72
2022/11/06 09:03:35;;;;;;;4.22;1.63;;;12.00;99.60;;;;;;10379598;28;20036;-63
2022/11/06 09:08:36;;;;;;;5.00;1.40;;;12.00;99.60;;;;;;10380060;28;20037;-63
2022/11/06 09:13:37;;;;;;;5.45;1.77;;;12.10;99.60;;;;;;10374952;28;20029;-62
2022/11/06 09:18:37;;;;;;;3.15;1.38;;;12.10;99.60;;;;;;10370542;28;20548;-62
2022/11/06 09:23:38;;;;;;;3.75;1.60;;;12.10;99.50;;;;;;10371273;28;20025;-62
2022/11/06 09:28:39;;;;;;;2.22;1.13;;;12.30;99.60;;;;;;10366394;28;20106;-62
2022/11/06 09:33:40;;;;;;;5.20;1.42;;;12.20;99.50;;;;;;10370590;28;20029;-62
2022/11/06 09:38:41;;;;;;;3.88;1.83;;;12.20;99.50;;;;;;10381977;28;20675;-62
2022/11/06 09:44:03;;;;;;;5.55;1.58;;;12.20;99.50;;;;;;10373057;28;20308;-63
2022/11/06 09:49:32;;;;;;;3.42;1.40;;;12.20;99.50;;;;;;10385360;28;20841;-62
2022/11/06 09:54:45;;;;;;;2.92;1.42;;;12.20;99.60;;;;;;10384571;28;20042;-63
2022/11/06 09:59:47;;;;;;;2.80;1.23;;;12.20;99.60;;;;;;10373299;28;20276;-62
2022/11/06 10:05:01;;;;;;;2.38;1.30;;;12.20;99.60;;;;;;10367871;28;20527;-62
2022/11/06 10:10:06;;;;;;;3.03;1.27;;;12.20;99.60;;;;;;10375709;28;20043;-63
2022/11/06 10:15:23;;;;;;;6.68;1.50;;;12.20;99.60;;;;;;10368750;28;20029;-64
2022/11/06 10:20:46;;;;;;;4.18;1.17;;;12.20;99.60;;;;;;10369337;28;20359;-62
2022/11/06 10:26:15;;;;;;;4.57;1.60;;;12.40;99.70;;;;;;10371757;28;20944;-62
2022/11/06 10:31:37;;;;;;;5.32;1.27;;;12.30;99.70;;;;;;10373889;28;20578;-62
2022/11/06 10:37:09;;;;;;;4.55;1.10;;;12.30;99.90;;;;;;10367745;28;20149;-62
2022/11/06 10:42:23;;;;;;;3.75;1.50;;;12.30;99.70;;;;;;10369098;28;20063;-62
2022/11/06 10:47:35;;;;;;;3.25;1.30;;;12.40;99.70;;;;;;10368788;28;20550;-61
2022/11/06 10:52:45;;;;;;;3.03;1.10;;;12.40;99.60;;;;;;10359357;28;20125;-61
2022/11/06 10:57:51;;;;;;;4.32;1.30;;;12.40;99.60;;;;;;10347456;28;20515;-61
2022/11/06 11:03:00;;;;;;;2.05;1.15;;;12.40;99.60;;;;;;10347089;28;20037;-63
2022/11/06 11:08:01;;;;;;;5.25;1.17;;;12.40;99.70;;;;;;10348245;28;20301;-62
2022/11/06 11:13:04;;;;;;;5.85;1.90;;;12.40;99.70;;;;;;10368400;28;20213;-63
2022/11/06 11:18:11;;;;;;;3.28;1.23;;;12.40;99.70;;;;;;10357554;28;20264;-62
2022/11/06 11:23:22;;;;;;;2.28;1.10;;;12.40;99.70;;;;;;10357888;28;20136;-66
2022/11/06 11:28:32;;;;;;;2.50;1.27;;;12.40;99.70;;;;;;10377953;28;20126;-63
2022/11/06 11:33:33;;;;;;;3.30;1.00;;;12.40;99.70;;;;;;10360537;28;20134;-62
2022/11/06 11:38:36;;;;;;;3.92;1.02;;;12.40;99.80;;;;;;10365804;28;20553;-62
2022/11/06 11:43:37;;;;;;;4.07;1.30;;;12.40;99.70;;;;;;10356990;28;20416;-61
2022/11/06 11:48:43;;;;;;;1.40;0.93;;;12.40;99.80;;;;;;10363564;28;20396;-61
2022/11/06 11:53:44;;;;;;;2.85;1.15;;;12.40;99.80;;;;;;10369089;28;20029;-61
2022/11/06 11:58:51;;;;;;;6.18;1.40;;;12.50;99.80;;;;;;10365529;28;20143;-62
2022/11/06 12:03:52;;;;;;;5.25;1.20;;;12.50;99.80;;;;;;10362870;28;20099;-61
2022/11/06 12:08:54;;;;;;;4.13;1.23;;;12.50;99.80;;;;;;10384129;28;20040;-61
2022/11/06 12:14:18;;;;;;;2.50;0.95;;;12.50;99.80;;;;;;10373890;28;20021;-62
2022/11/06 12:19:21;;;;;;;2.38;1.20;;;12.50;99.80;;;;;;10376401;28;20604;-62
2022/11/06 12:24:50;;;;;;;2.88;1.20;;;12.50;99.70;;;;;;10370658;28;20029;-62
2022/11/06 12:30:02;;;;;;;3.92;2.03;;;12.50;99.90;;;;;;10361056;28;20048;-61
2022/11/06 12:35:17;;;;;;;6.15;1.40;;;12.50;99.70;;;;;;10372335;28;20282;-62
2022/11/06 12:40:30;;;;;;;2.58;1.08;;;12.60;99.70;;;;;;10378539;28;20417;-62
2022/11/06 12:46:01;;;;;;;3.10;0.85;;;12.60;99.70;;;;;;10371743;28;20033;-62
2022/11/06 12:51:26;;;;;;;2.42;1.00;;;12.50;99.70;;;;;;10377770;28;20064;-62
2022/11/06 12:56:39;;;;;;;3.25;1.08;;;12.60;99.80;;;;;;10373968;28;20029;-65
2022/11/06 13:01:46;;;;;;;1.48;1.10;;;12.60;99.70;;;;;;10368229;28;20043;-62
2022/11/06 13:07:02;;;;;;;2.45;1.27;;;12.60;99.70;;;;;;10374620;28;20440;-62
2022/11/06 13:12:20;;;;;;;2.10;1.00;;;12.60;99.70;;;;;;10373993;28;20033;-63
2022/11/06 13:17:29;;;;;;;2.42;1.05;;;12.60;99.70;;;;;;10360579;28;20037;-61
2022/11/06 13:22:50;;;;;;;4.78;1.38;;;12.60;99.70;;;;;;10376321;28;20090;-62
2022/11/06 13:28:01;;;;;;;5.85;1.05;;;12.60;99.70;;;;;;10370574;28;20532;-63
2022/11/06 13:33:02;;;;;;;5.32;0.95;;;12.60;99.70;;;;;;10371568;28;20932;-62
2022/11/06 13:38:06;;;;;;;3.58;0.98;;;12.60;99.70;;;;;;10377730;28;20218;-61
2022/11/06 13:43:09;;;;;;;2.35;0.98;;;12.60;99.70;;;;;;10381566;28;20479;-62
2022/11/06 13:48:39;;;;;;;3.33;1.05;;;12.50;99.60;;;;;;10371875;28;20110;-63
2022/11/06 13:54:01;;;;;;;5.07;1.15;;;12.60;99.60;;;;;;10362732;28;20044;-62
2022/11/06 13:59:17;;;;;;;3.53;1.25;;;12.60;99.60;;;;;;10369801;28;20029;-62
2022/11/06 14:04:47;;;;;;;2.70;1.33;;;12.60;99.50;;;;;;10367734;28;20387;-64
2022/11/06 14:09:48;;;;;;;2.78;0.90;;;12.50;99.40;;;;;;10374227;28;20373;-62
2022/11/06 14:15:22;;;;;;;1.88;0.95;;;12.50;99.50;;;;;;10368914;28;20027;-62
2022/11/06 14:20:37;;;;;;;4.38;1.10;;;12.60;99.40;;;;;;10372464;28;20060;-61
2022/11/06 14:25:41;;;;;;;3.30;1.17;;;12.60;99.40;;;;;;10372791;28;20126;-61
2022/11/06 14:30:42;;;;;;;1.20;0.75;;;12.50;99.40;;;;;;10356626;28;20897;-60
2022/11/06 14:35:49;;;;;;;2.25;1.13;;;12.50;99.40;;;;;;10371164;28;20250;-61
2022/11/06 14:40:50;;;;;;;2.97;0.85;;;12.50;99.40;;;;;;10376994;28;20045;-62
2022/11/06 14:46:19;;;;;;;4.50;1.13;;;12.60;99.40;;;;;;10368788;28;20159;-61
2022/11/06 14:51:28;;;;;;;2.20;0.80;;;12.60;99.30;;;;;;10370310;28;20052;-61
2022/11/06 14:56:32;;;;;;;4.32;1.10;;;12.50;99.30;;;;;;10363097;28;20503;-60
2022/11/06 15:01:39;;;;;;;3.33;1.10;;;12.50;99.30;;;;;;10368625;28;20028;-69
2022/11/06 15:06:44;;;;;;;1.83;1.00;;;12.50;99.30;;;;;;10368906;28;20044;-62
2022/11/06 15:11:48;;;;;;;5.38;1.48;;;12.50;99.30;;;;;;10374342;28;20609;-62
2022/11/06 15:17:14;;;;;;;3.20;1.05;;;12.50;99.40;;;;;;10366714;28;20951;-62
2022/11/06 15:22:38;;;;;;;2.42;1.52;;;12.50;99.30;;;;;;10369074;28;20036;-60
2022/11/06 15:28:09;;;;;;;4.40;1.13;;;12.50;99.40;;;;;;10367770;28;20066;-60
2022/11/06 15:33:14;;;;;;;2.83;1.05;;;12.50;99.40;;;;;;10354990;28;20580;-60
2022/11/06 15:38:20;;;;;;;6.63;1.13;;;12.50;99.50;;;;;;10367810;28;20273;-61
2022/11/06 15:43:29;;;;;;;2.13;1.13;;;12.50;99.60;;;;;;10370614;28;20289;-68
2022/11/06 15:48:30;;;;;;;3.63;1.13;;;12.50;99.50;;;;;;10364143;28;20053;-60
2022/11/06 15:53:32;;;;;;;1.60;1.08;;;12.50;99.60;;;;;;10360311;28;20562;-61
2022/11/06 15:58:35;;;;;;;4.40;1.30;;;12.20;99.50;;;;;;10333063;28;20127;-61
2022/11/06 16:04:05;;;;;;;3.33;1.55;;;12.50;99.60;;;;;;10350433;28;20479;-60
2022/11/06 16:09:12;;;;;;;1.95;0.82;;;12.40;99.50;;;;;;10368106;28;20714;-61
2022/11/06 16:14:13;;;;;;;3.20;1.30;;;12.40;99.60;;;;;;10339466;28;20587;-61
2022/11/06 16:19:25;;;;;;;1.80;0.90;;;12.40;99.60;;;;;;10353620;28;20037;-61
2022/11/06 16:24:32;;;;;;;2.25;0.90;;;12.30;99.50;;;;;;10410078;28;20441;-61
2022/11/06 16:29:34;;;;;;;1.67;0.80;;;12.30;99.50;;;;;;10422308;28;20047;-61
2022/11/06 16:34:38;;;;;;;1.50;0.68;;;12.30;99.50;;;;;;10419079;28;20144;-62
2022/11/06 16:39:44;;;;;;;3.35;0.80;;;12.30;99.40;;;;;;10426066;28;20041;-63
2022/11/06 16:44:46;;;;;;;1.77;0.90;;;12.20;99.30;;;;;;10423857;28;20033;-62
2022/11/06 16:49:49;;;;;;;1.48;0.82;;;12.20;99.40;;;;;;10429692;28;20047;-61
2022/11/06 16:55:24;;;;;;;2.28;0.82;;;12.20;99.30;;;;;;10448159;28;20028;-61
2022/11/06 17:00:29;;;;;;;2.72;0.70;;;12.10;99.00;;;;;;10431267;28;20045;-62
2022/11/06 17:05:36;;;;;;;3.95;0.98;;;12.10;99.20;;;;;;10443110;28;20075;-62
2022/11/06 17:10:40;;;;;;;2.22;0.88;;;12.10;99.10;;;;;;10452455;28;20044;-61
2022/11/06 17:15:42;;;;;;;1.55;0.80;;;12.00;99.10;;;;;;10445216;28;20074;-62
2022/11/06 17:21:04;;;;;;;4.00;1.27;;;12.00;99.10;;;;;;10439887;28;20040;-62
2022/11/06 17:26:22;;;;;;;2.00;0.90;;;12.80;99.00;;;;;;10427909;28;20051;-61
2022/11/06 17:31:24;;;;;;;1.10;0.67;;;12.00;98.80;;;;;;10436658;28;20056;-62
2022/11/06 17:36:26;;;;;;;1.48;0.73;;;11.90;99.00;;;;;;10424567;28;20437;-61
2022/11/06 17:41:29;;;;;;;2.70;0.90;;;11.90;99.00;;;;;;10423471;28;20063;-61
2022/11/06 17:46:36;;;;;;;1.42;0.98;;;11.90;99.00;;;;;;10429314;28;20047;-63
2022/11/06 17:52:08;;;;;;;1.75;1.10;;;11.90;99.00;;;;;;10431910;28;20017;-62
2022/11/06 17:57:12;;;;;;;3.28;1.20;;;11.90;98.90;;;;;;10436309;28;20028;-61
2022/11/06 18:02:18;;;;;;;2.88;1.13;;;11.80;98.90;;;;;;10446011;28;20025;-61
2022/11/06 18:07:18;;;;;;;1.25;0.82;;;11.80;99.00;;;;;;10451794;28;20059;-62
2022/11/06 18:12:22;;;;;;;3.45;1.13;;;11.80;99.00;;;;;;10451563;28;20025;-62
2022/11/06 18:17:23;;;;;;;1.52;0.90;;;11.80;99.00;;;;;;10451044;28;20036;-61
2022/11/06 18:22:24;;;;;;;1.13;0.80;;;11.80;99.00;;;;;;10451126;28;20025;-61
2022/11/06 18:27:25;;;;;;;1.88;1.23;;;11.80;99.00;;;;;;10450643;28;20037;-62
2022/11/06 18:32:26;;;;;;;1.77;1.00;;;11.80;99.00;;;;;;10449321;28;20378;-61
2022/11/06 18:37:26;;;;;;;1.63;1.10;;;11.80;99.30;;;;;;10452152;28;20186;-62
2022/11/06 18:42:27;;;;;;;1.70;1.20;;;11.80;99.00;;;;;;10448181;28;20037;-61
2022/11/06 18:47:28;;;;;;;3.83;1.30;;;11.80;99.10;;;;;;10440576;28;20135;-61
2022/11/06 18:52:30;;;;;;;5.28;1.40;;;11.80;99.10;;;;;;10431815;28;20079;-62
2022/11/06 18:57:31;;;;;;;2.63;1.30;;;11.80;99.10;;;;;;10426792;28;20323;-64
2022/11/06 19:02:32;;;;;;;4.57;1.77;;;11.80;99.10;;;;;;10429538;28;20029;-62
2022/11/06 19:07:33;;;;;;;4.78;1.70;;;11.70;99.10;;;;;;10442855;28;20094;-61
2022/11/06 19:12:34;;;;;;;3.20;1.38;;;11.70;99.20;;;;;;10432093;28;20102;-61
2022/11/06 19:17:34;;;;;;;2.97;1.40;;;11.70;99.20;;;;;;10429218;28;20405;-61
2022/11/06 19:22:36;;;;;;;3.42;1.70;;;11.70;99.20;;;;;;10440203;28;20037;-61
2022/11/06 19:27:37;;;;;;;6.45;2.40;;;11.70;99.30;;;;;;10442316;28;20575;-61
2022/11/06 19:32:37;;;;;;;3.20;1.88;;;11.70;99.30;;;;;;10440158;28;20348;-61
2022/11/06 19:37:39;;;;;;;5.88;2.22;;;11.60;99.30;;;;;;10439848;28;20053;-61
2022/11/06 19:42:40;;;;;;;3.08;2.05;;;11.60;99.30;;;;;;10457656;28;20108;-60
2022/11/06 19:47:40;;;;;;;2.47;1.90;;;11.60;99.30;;;;;;10440787;28;20055;-63
2022/11/06 19:52:41;;;;;;;3.85;2.05;;;11.60;99.40;;;;;;10456117;28;20017;-62
2022/11/06 19:57:42;;;;;;;4.93;2.03;;;11.60;99.40;;;;;;10452367;28;20034;-61
2022/11/06 20:02:46;;;;;;;3.65;2.20;;;11.60;99.40;;;;;;10438869;28;20032;-60
2022/11/06 20:07:47;;;;;;;4.22;2.13;;;11.60;99.40;;;;;;10446397;28;20037;-69
2022/11/06 20:12:48;;;;;;;4.80;1.80;;;11.60;99.40;;;;;;10438330;28;20033;-62
2022/11/06 20:17:49;;;;;;;4.75;1.80;;;11.60;99.40;;;;;;10439509;28;20091;-60
2022/11/06 20:22:50;;;;;;;3.47;2.38;;;11.60;99.40;;;;;;10440472;28;20029;-61
2022/11/06 20:27:50;;;;;;;2.38;1.60;;;11.60;99.50;;;;;;10444003;28;20041;-61
2022/11/06 20:32:51;;;;;;;5.60;2.28;;;11.60;99.50;;;;;;10442622;28;20183;-60
2022/11/06 20:37:52;;;;;;;6.03;2.20;;;11.60;99.50;;;;;;10436641;28;20203;-61
2022/11/06 20:42:53;;;;;;;3.80;1.90;;;11.60;99.50;;;;;;10433750;28;20056;-61
2022/11/06 20:47:53;;;;;;;3.03;1.80;;;11.60;99.50;;;;;;10439639;28;20047;-63
2022/11/06 20:52:54;;;;;;;4.35;2.00;;;11.70;99.60;;;;;;10441075;28;20055;-62
2022/11/06 20:57:55;;;;;;;7.03;2.00;;;11.70;99.60;;;;;;10436322;28;20045;-63
2022/11/06 21:02:56;;;;;;;3.58;1.90;;;11.70;99.60;;;;;;10438554;28;20029;-68
2022/11/06 21:07:57;;;;;;;4.85;1.83;;;11.70;99.70;;;;;;10439965;28;20048;-62
2022/11/06 21:12:58;;;;;;;3.03;1.92;;;11.70;99.70;;;;;;10442655;28;20029;-62
2022/11/06 21:17:58;;;;;;;3.13;2.13;;;11.70;99.70;;;;;;10447200;28;20024;-68
2022/11/06 21:22:59;;;;;;;5.47;2.30;;;11.70;99.80;;;;;;10446204;28;20041;-61
2022/11/06 21:28:00;;;;;;;5.88;2.20;;;11.70;99.80;;;;;;10440488;28;20033;-60
2022/11/06 21:33:01;;;;;;;4.63;2.08;;;11.80;99.90;;;;;;10445941;28;20386;-61
2022/11/06 21:38:02;;;;;;;3.58;2.00;;;11.70;99.90;;;;;;10450280;28;20079;-61
2022/11/06 21:43:03;;;;;;;5.57;2.13;;;11.80;99.90;;;;;;10441188;28;20386;-60
2022/11/06 21:48:04;;;;;;;3.60;2.33;;;11.80;99.90;;;;;;10450880;28;20504;-60
2022/11/06 21:58:23;;;;;;;4.57;3.03;;;11.90;99.90;;;;;;10439953;28;20053;-62
2022/11/06 22:03:24;;;;;;;4.47;2.10;;;11.80;99.90;;;;;;10443715;28;20140;-62
2022/11/06 22:08:25;;;;;;;4.88;2.35;;;11.80;99.90;;;;;;10435564;28;20045;-61
2022/11/06 22:13:26;;;;;;;3.88;2.20;;;11.80;99.90;;;;;;10431578;28;20253;-62
2022/11/06 22:18:27;;;;;;;5.78;2.30;;;11.80;99.90;;;;;;10425383;28;20293;-62
2022/11/06 22:23:28;;;;;;;4.85;2.60;;;11.80;99.90;;;;;;10438311;28;20597;-61
2022/11/06 22:28:28;;;;;;;3.55;2.20;;;11.80;99.90;;;;;;10443567;28;20090;-63
2022/11/06 22:33:30;;;;;;;5.38;2.80;;;11.80;99.90;;;;;;10446284;28;20110;-61
2022/11/06 22:38:32;;;;;;;6.85;2.42;;;11.80;99.90;;;;;;10446204;28;20114;-62
2022/11/06 22:43:33;;;;;;;3.95;2.40;;;11.80;99.90;;;;;;10446995;28;20025;-62
2022/11/06 22:48:33;;;;;;;3.05;2.42;;;11.80;99.90;;;;;;10442181;28;20118;-62
2022/11/06 22:53:34;;;;;;;4.10;2.20;;;11.80;99.90;;;;;;10445888;28;20097;-61
2022/11/06 22:58:35;;;;;;;4.50;2.45;;;11.80;99.90;;;;;;10443495;28;20036;-61
2022/11/06 23:03:36;;;;;;;3.75;2.28;;;11.80;99.90;;;;;;10449357;28;20081;-61
2022/11/06 23:08:39;;;;;;;3.88;2.50;;;11.80;99.90;;;;;;10457390;28;20044;-61
2022/11/06 23:13:40;;;;;;;2.90;2.30;;;11.80;99.90;;;;;;10462840;28;20044;-61
2022/11/06 23:18:41;;;;;;;4.68;2.92;;;11.80;99.90;;;;;;10456023;28;20121;-61
2022/11/06 23:23:43;;;;;;;4.32;2.42;;;11.90;99.90;;;;;;10461143;28;20025;-61
2022/11/06 23:28:45;;;;;;;3.83;2.53;;;11.90;99.90;;;;;;10460551;28;20068;-61
2022/11/06 23:33:46;;;;;;;4.90;2.20;;;11.90;99.90;;;;;;10459695;28;20087;-61
2022/11/06 23:38:46;;;;;;;4.15;2.25;;;11.90;99.90;;;;;;10458704;28;20378;-61
2022/11/06 23:43:49;;;;;;;3.47;2.47;;;11.90;99.90;;;;;;10460974;28;20028;-60
2022/11/06 23:48:50;;;;;;;3.63;2.42;;;11.90;99.90;;;;;;10458742;28;20412;-61
2022/11/06 23:53:51;;;;;;;3.60;2.55;;;12.00;99.90;;;;;;10461143;28;20031;-61
2022/11/06 23:58:52;;;;;;;3.72;2.40;;;11.90;99.90;;;;;;10461447;28;20029;-61
